sensor_id;sensor_type;location;lat;lon;timestamp;temperature;humidity
36548;DHT22;22551;52.206;4.856;2023-11-22T00:00:48;5.70;99.90
36548;DHT22;22551;52.206;4.856;2023-11-22T00:05:51;5.70;99.90
36548;DHT22;22551;52.206;4.856;2023-11-22T00:10:53;5.70;99.90
36548;DHT22;22551;52.206;4.856;2023-11-22T00:15:56;5.70;99.90
36548;DHT22;22551;52.206;4.856;2023-11-22T00:20:59;5.70;99.90
36548;DHT22;22551;52.206;4.856;2023-11-22T00:26:01;5.70;99.90
36548;DHT22;22551;52.206;4.856;2023-11-22T00:31:04;5.70;99.90
36548;DHT22;22551;52.206;4.856;2023-11-22T00:36:07;5.70;99.90
36548;DHT22;22551;52.206;4.856;2023-11-22T00:41:10;5.70;99.90
36548;DHT22;22551;52.206;4.856;2023-11-22T00:46:13;5.70;99.90
36548;DHT22;22551;52.206;4.856;2023-11-22T00:51:15;5.70;99.90
36548;DHT22;22551;52.206;4.856;2023-11-22T00:56:17;5.70;99.90
36548;DHT22;22551;52.206;4.856;2023-11-22T01:01:23;5.60;99.90
36548;DHT22;22551;52.206;4.856;2023-11-22T01:06:26;5.70;99.90
36548;DHT22;22551;52.206;4.856;2023-11-22T01:11:29;5.70;99.90
36548;DHT22;22551;52.206;4.856;2023-11-22T01:16:33;5.70;99.90
36548;DHT22;22551;52.206;4.856;2023-11-22T01:21:37;5.70;99.90
36548;DHT22;22551;52.206;4.856;2023-11-22T01:26:39;5.70;99.90
36548;DHT22;22551;52.206;4.856;2023-11-22T01:31:44;5.70;99.90
36548;DHT22;22551;52.206;4.856;2023-11-22T01:36:49;5.70;99.90
36548;DHT22;22551;52.206;4.856;2023-11-22T01:41:51;5.70;99.90
36548;DHT22;22551;52.206;4.856;2023-11-22T01:46:56;5.70;99.90
36548;DHT22;22551;52.206;4.856;2023-11-22T01:51:59;5.50;99.90
36548;DHT22;22551;52.206;4.856;2023-11-22T01:57:02;5.40;99.90
36548;DHT22;22551;52.206;4.856;2023-11-22T02:02:09;5.30;99.90
36548;DHT22;22551;52.206;4.856;2023-11-22T02:07:12;5.20;99.90
36548;DHT22;22551;52.206;4.856;2023-11-22T02:12:14;5.10;99.90
36548;DHT22;22551;52.206;4.856;2023-11-22T02:17:18;5.00;99.90
36548;DHT22;22551;52.206;4.856;2023-11-22T02:22:21;4.90;99.90
36548;DHT22;22551;52.206;4.856;2023-11-22T02:27:25;4.80;99.90
36548;DHT22;22551;52.206;4.856;2023-11-22T02:32:27;4.80;99.90
36548;DHT22;22551;52.206;4.856;2023-11-22T02:37:30;4.80;99.90
36548;DHT22;22551;52.206;4.856;2023-11-22T02:42:34;4.70;99.90
36548;DHT22;22551;52.206;4.856;2023-11-22T02:47:36;4.70;99.90
36548;DHT22;22551;52.206;4.856;2023-11-22T02:52:38;4.70;99.90
36548;DHT22;22551;52.206;4.856;2023-11-22T02:57:42;4.60;99.90
36548;DHT22;22551;52.206;4.856;2023-11-22T03:02:45;4.60;99.90
36548;DHT22;22551;52.206;4.856;2023-11-22T03:07:48;4.50;99.90
36548;DHT22;22551;52.206;4.856;2023-11-22T03:12:53;4.50;99.90
36548;DHT22;22551;52.206;4.856;2023-11-22T03:17:56;4.50;99.90
36548;DHT22;22551;52.206;4.856;2023-11-22T03:22:59;4.40;99.90
36548;DHT22;22551;52.206;4.856;2023-11-22T03:28:04;4.40;99.90
36548;DHT22;22551;52.206;4.856;2023-11-22T03:33:06;4.40;99.90
36548;DHT22;22551;52.206;4.856;2023-11-22T03:38:09;4.30;99.90
36548;DHT22;22551;52.206;4.856;2023-11-22T03:43:13;4.40;99.90
36548;DHT22;22551;52.206;4.856;2023-11-22T03:48:15;4.40;99.90
36548;DHT22;22551;52.206;4.856;2023-11-22T03:53:17;4.40;99.90
36548;DHT22;22551;52.206;4.856;2023-11-22T03:58:23;4.40;99.90
36548;DHT22;22551;52.206;4.856;2023-11-22T04:03:25;4.40;99.90
36548;DHT22;22551;52.206;4.856;2023-11-22T04:08:27;4.40;99.90
36548;DHT22;22551;52.206;4.856;2023-11-22T04:13:31;4.40;99.90
36548;DHT22;22551;52.206;4.856;2023-11-22T04:18:33;4.40;99.90
36548;DHT22;22551;52.206;4.856;2023-11-22T04:23:35;4.40;99.90
36548;DHT22;22551;52.206;4.856;2023-11-22T04:28:39;4.40;99.90
36548;DHT22;22551;52.206;4.856;2023-11-22T04:33:41;4.40;99.90
36548;DHT22;22551;52.206;4.856;2023-11-22T04:38:43;4.50;99.90
36548;DHT22;22551;52.206;4.856;2023-11-22T04:43:47;4.50;99.90
36548;DHT22;22551;52.206;4.856;2023-11-22T04:48:49;4.50;99.90
36548;DHT22;22551;52.206;4.856;2023-11-22T04:53:52;4.50;99.90
36548;DHT22;22551;52.206;4.856;2023-11-22T04:58:56;4.60;99.90
36548;DHT22;22551;52.206;4.856;2023-11-22T05:03:59;4.60;99.90
36548;DHT22;22551;52.206;4.856;2023-11-22T05:09:01;4.60;99.90
36548;DHT22;22551;52.206;4.856;2023-11-22T05:14:04;4.60;99.90
36548;DHT22;22551;52.206;4.856;2023-11-22T05:19:06;4.60;99.90
36548;DHT22;22551;52.206;4.856;2023-11-22T05:24:09;4.60;99.90
36548;DHT22;22551;52.206;4.856;2023-11-22T05:29:12;4.60;99.90
36548;DHT22;22551;52.206;4.856;2023-11-22T05:34:14;4.60;99.90
36548;DHT22;22551;52.206;4.856;2023-11-22T05:39:16;4.60;99.90
36548;DHT22;22551;52.206;4.856;2023-11-22T05:44:20;4.60;99.90
36548;DHT22;22551;52.206;4.856;2023-11-22T05:49:22;4.60;99.90
36548;DHT22;22551;52.206;4.856;2023-11-22T05:54:24;4.60;99.90
36548;DHT22;22551;52.206;4.856;2023-11-22T05:59:28;4.60;99.90
36548;DHT22;22551;52.206;4.856;2023-11-22T06:04:30;4.60;99.90
36548;DHT22;22551;52.206;4.856;2023-11-22T06:09:32;4.60;99.90
36548;DHT22;22551;52.206;4.856;2023-11-22T06:14:36;4.60;99.90
36548;DHT22;22551;52.206;4.856;2023-11-22T06:19:38;4.50;99.90
36548;DHT22;22551;52.206;4.856;2023-11-22T06:24:40;4.50;99.90
36548;DHT22;22551;52.206;4.856;2023-11-22T06:29:44;4.50;99.90
36548;DHT22;22551;52.206;4.856;2023-11-22T06:34:47;4.50;99.90
36548;DHT22;22551;52.206;4.856;2023-11-22T06:39:49;4.50;99.90
36548;DHT22;22551;52.206;4.856;2023-11-22T06:44:53;4.50;99.90
36548;DHT22;22551;52.206;4.856;2023-11-22T06:49:59;4.50;99.90
36548;DHT22;22551;52.206;4.856;2023-11-22T06:55:01;4.50;99.90
36548;DHT22;22551;52.206;4.856;2023-11-22T07:00:06;4.50;99.90
36548;DHT22;22551;52.206;4.856;2023-11-22T07:05:10;4.40;99.90
36548;DHT22;22551;52.206;4.856;2023-11-22T07:10:12;4.40;99.90
36548;DHT22;22551;52.206;4.856;2023-11-22T07:15:17;4.40;99.90
36548;DHT22;22551;52.206;4.856;2023-11-22T07:20:19;4.40;99.90
36548;DHT22;22551;52.206;4.856;2023-11-22T07:25:21;4.40;99.90
36548;DHT22;22551;52.206;4.856;2023-11-22T07:30:26;4.30;99.90
36548;DHT22;22551;52.206;4.856;2023-11-22T07:35:34;4.30;99.90
36548;DHT22;22551;52.206;4.856;2023-11-22T07:40:36;4.30;99.90
36548;DHT22;22551;52.206;4.856;2023-11-22T07:45:39;4.20;99.90
36548;DHT22;22551;52.206;4.856;2023-11-22T07:50:41;4.20;99.90
36548;DHT22;22551;52.206;4.856;2023-11-22T07:55:44;4.20;99.90
36548;DHT22;22551;52.206;4.856;2023-11-22T08:00:48;4.20;99.90
36548;DHT22;22551;52.206;4.856;2023-11-22T08:05:53;4.10;99.90
36548;DHT22;22551;52.206;4.856;2023-11-22T08:10:56;4.20;99.90
36548;DHT22;22551;52.206;4.856;2023-11-22T08:15:59;4.10;99.90
36548;DHT22;22551;52.206;4.856;2023-11-22T08:21:01;4.30;99.90
36548;DHT22;22551;52.206;4.856;2023-11-22T08:26:05;4.30;99.90
36548;DHT22;22551;52.206;4.856;2023-11-22T08:31:16;4.40;99.90
36548;DHT22;22551;52.206;4.856;2023-11-22T08:36:21;4.50;99.90
36548;DHT22;22551;52.206;4.856;2023-11-22T08:41:24;4.50;99.90
36548;DHT22;22551;52.206;4.856;2023-11-22T08:46:32;4.60;99.90
36548;DHT22;22551;52.206;4.856;2023-11-22T08:51:35;4.60;99.90
36548;DHT22;22551;52.206;4.856;2023-11-22T08:56:37;4.70;99.90
36548;DHT22;22551;52.206;4.856;2023-11-22T09:01:42;4.80;99.90
36548;DHT22;22551;52.206;4.856;2023-11-22T09:06:46;4.90;99.90
36548;DHT22;22551;52.206;4.856;2023-11-22T09:11:49;4.90;99.90
36548;DHT22;22551;52.206;4.856;2023-11-22T09:16:53;5.00;99.90
36548;DHT22;22551;52.206;4.856;2023-11-22T09:21:56;5.00;99.90
36548;DHT22;22551;52.206;4.856;2023-11-22T09:26:59;5.20;99.90
36548;DHT22;22551;52.206;4.856;2023-11-22T09:32:07;5.30;99.90
36548;DHT22;22551;52.206;4.856;2023-11-22T09:37:11;5.40;99.90
36548;DHT22;22551;52.206;4.856;2023-11-22T09:42:15;5.50;99.90
36548;DHT22;22551;52.206;4.856;2023-11-22T09:47:20;5.50;99.90
36548;DHT22;22551;52.206;4.856;2023-11-22T09:52:25;5.60;99.90
36548;DHT22;22551;52.206;4.856;2023-11-22T09:57:33;5.60;99.90
36548;DHT22;22551;52.206;4.856;2023-11-22T10:02:42;5.80;99.90
36548;DHT22;22551;52.206;4.856;2023-11-22T10:07:45;5.80;99.90
36548;DHT22;22551;52.206;4.856;2023-11-22T10:12:48;5.90;99.90
36548;DHT22;22551;52.206;4.856;2023-11-22T10:17:56;6.10;99.90
36548;DHT22;22551;52.206;4.856;2023-11-22T10:23:02;6.20;99.90
36548;DHT22;22551;52.206;4.856;2023-11-22T10:28:06;6.30;99.90
36548;DHT22;22551;52.206;4.856;2023-11-22T10:33:11;6.30;99.90
36548;DHT22;22551;52.206;4.856;2023-11-22T10:38:15;6.50;99.90
36548;DHT22;22551;52.206;4.856;2023-11-22T10:43:18;6.50;99.90
36548;DHT22;22551;52.206;4.856;2023-11-22T10:48:25;6.60;99.90
36548;DHT22;22551;52.206;4.856;2023-11-22T10:53:31;6.70;99.90
36548;DHT22;22551;52.206;4.856;2023-11-22T10:58:45;6.80;99.90
36548;DHT22;22551;52.206;4.856;2023-11-22T11:03:55;6.80;99.90
36548;DHT22;22551;52.206;4.856;2023-11-22T11:09:02;6.90;99.90
36548;DHT22;22551;52.206;4.856;2023-11-22T11:14:08;7.00;99.90
36548;DHT22;22551;52.206;4.856;2023-11-22T11:19:14;7.10;99.90
36548;DHT22;22551;52.206;4.856;2023-11-22T11:24:18;7.00;99.90
36548;DHT22;22551;52.206;4.856;2023-11-22T11:29:30;7.00;99.90
36548;DHT22;22551;52.206;4.856;2023-11-22T11:34:46;7.00;99.90
36548;DHT22;22551;52.206;4.856;2023-11-22T11:39:50;7.10;99.90
36548;DHT22;22551;52.206;4.856;2023-11-22T11:45:05;7.20;99.90
36548;DHT22;22551;52.206;4.856;2023-11-22T11:50:11;7.30;99.90
36548;DHT22;22551;52.206;4.856;2023-11-22T11:55:13;7.30;99.90
36548;DHT22;22551;52.206;4.856;2023-11-22T12:00:16;7.40;99.90
36548;DHT22;22551;52.206;4.856;2023-11-22T12:05:20;7.30;99.90
36548;DHT22;22551;52.206;4.856;2023-11-22T12:10:28;7.20;99.90
36548;DHT22;22551;52.206;4.856;2023-11-22T12:15:32;7.30;99.90
36548;DHT22;22551;52.206;4.856;2023-11-22T12:20:37;7.30;99.90
36548;DHT22;22551;52.206;4.856;2023-11-22T12:25:39;7.40;99.90
36548;DHT22;22551;52.206;4.856;2023-11-22T12:30:44;7.50;99.90
36548;DHT22;22551;52.206;4.856;2023-11-22T12:35:48;7.70;99.90
36548;DHT22;22551;52.206;4.856;2023-11-22T12:40:50;7.90;99.90
36548;DHT22;22551;52.206;4.856;2023-11-22T12:45:59;8.00;99.90
36548;DHT22;22551;52.206;4.856;2023-11-22T12:51:03;7.90;99.90
36548;DHT22;22551;52.206;4.856;2023-11-22T12:56:15;7.90;99.90
36548;DHT22;22551;52.206;4.856;2023-11-22T13:01:18;7.80;99.90
36548;DHT22;22551;52.206;4.856;2023-11-22T13:06:22;7.90;99.90
36548;DHT22;22551;52.206;4.856;2023-11-22T13:11:27;7.80;99.90
36548;DHT22;22551;52.206;4.856;2023-11-22T13:16:29;7.70;99.90
36548;DHT22;22551;52.206;4.856;2023-11-22T13:21:34;7.70;99.90
36548;DHT22;22551;52.206;4.856;2023-11-22T13:26:36;7.80;99.90
36548;DHT22;22551;52.206;4.856;2023-11-22T13:31:38;7.70;99.90
36548;DHT22;22551;52.206;4.856;2023-11-22T13:36:42;7.60;99.90
36548;DHT22;22551;52.206;4.856;2023-11-22T13:41:45;7.50;99.90
36548;DHT22;22551;52.206;4.856;2023-11-22T13:46:47;7.50;99.90
36548;DHT22;22551;52.206;4.856;2023-11-22T13:51:51;7.50;99.90
36548;DHT22;22551;52.206;4.856;2023-11-22T13:56:53;7.50;99.90
36548;DHT22;22551;52.206;4.856;2023-11-22T14:01:55;7.40;99.90
36548;DHT22;22551;52.206;4.856;2023-11-22T14:06:59;7.40;99.90
36548;DHT22;22551;52.206;4.856;2023-11-22T14:12:02;7.40;99.90
36548;DHT22;22551;52.206;4.856;2023-11-22T14:17:04;7.30;99.90
36548;DHT22;22551;52.206;4.856;2023-11-22T14:22:08;7.30;99.90
36548;DHT22;22551;52.206;4.856;2023-11-22T14:27:10;7.20;99.90
36548;DHT22;22551;52.206;4.856;2023-11-22T14:32:12;7.30;99.90
36548;DHT22;22551;52.206;4.856;2023-11-22T14:37:16;7.30;99.90
36548;DHT22;22551;52.206;4.856;2023-11-22T14:42:18;7.30;99.90
36548;DHT22;22551;52.206;4.856;2023-11-22T14:47:20;7.20;99.90
36548;DHT22;22551;52.206;4.856;2023-11-22T14:52:26;7.20;99.90
36548;DHT22;22551;52.206;4.856;2023-11-22T14:57:29;7.20;99.90
36548;DHT22;22551;52.206;4.856;2023-11-22T15:02:31;7.20;99.90
36548;DHT22;22551;52.206;4.856;2023-11-22T15:07:36;7.20;99.90
36548;DHT22;22551;52.206;4.856;2023-11-22T15:12:41;7.20;99.90
36548;DHT22;22551;52.206;4.856;2023-11-22T15:17:43;7.10;99.90
36548;DHT22;22551;52.206;4.856;2023-11-22T15:22:47;7.10;99.90
36548;DHT22;22551;52.206;4.856;2023-11-22T15:27:49;7.00;99.90
36548;DHT22;22551;52.206;4.856;2023-11-22T15:32:51;6.90;99.90
36548;DHT22;22551;52.206;4.856;2023-11-22T15:37:55;6.80;99.90
36548;DHT22;22551;52.206;4.856;2023-11-22T15:42:58;6.80;99.90
36548;DHT22;22551;52.206;4.856;2023-11-22T15:48:00;6.80;99.90
36548;DHT22;22551;52.206;4.856;2023-11-22T15:53:05;6.80;99.90
36548;DHT22;22551;52.206;4.856;2023-11-22T15:58:13;6.70;99.90
36548;DHT22;22551;52.206;4.856;2023-11-22T16:03:15;6.70;99.90
36548;DHT22;22551;52.206;4.856;2023-11-22T16:08:22;6.60;99.90
36548;DHT22;22551;52.206;4.856;2023-11-22T16:13:25;6.60;99.90
36548;DHT22;22551;52.206;4.856;2023-11-22T16:18:27;6.50;99.90
36548;DHT22;22551;52.206;4.856;2023-11-22T16:23:33;6.50;99.90
36548;DHT22;22551;52.206;4.856;2023-11-22T16:28:36;6.40;99.90
36548;DHT22;22551;52.206;4.856;2023-11-22T16:33:40;6.40;99.90
36548;DHT22;22551;52.206;4.856;2023-11-22T16:38:46;6.40;99.90
36548;DHT22;22551;52.206;4.856;2023-11-22T16:43:50;6.40;99.90
36548;DHT22;22551;52.206;4.856;2023-11-22T16:48:54;6.40;99.90
36548;DHT22;22551;52.206;4.856;2023-11-22T16:53:59;6.40;99.90
36548;DHT22;22551;52.206;4.856;2023-11-22T16:59:09;6.30;99.90
36548;DHT22;22551;52.206;4.856;2023-11-22T17:04:12;6.40;99.90
36548;DHT22;22551;52.206;4.856;2023-11-22T17:09:15;6.40;99.90
36548;DHT22;22551;52.206;4.856;2023-11-22T17:14:21;6.30;99.90
36548;DHT22;22551;52.206;4.856;2023-11-22T17:19:26;6.30;99.90
36548;DHT22;22551;52.206;4.856;2023-11-22T17:24:31;6.30;99.90
36548;DHT22;22551;52.206;4.856;2023-11-22T17:29:43;6.40;99.90
36548;DHT22;22551;52.206;4.856;2023-11-22T17:35:21;6.40;99.90
36548;DHT22;22551;52.206;4.856;2023-11-22T17:40:29;6.40;99.90
36548;DHT22;22551;52.206;4.856;2023-11-22T17:45:36;6.50;99.90
36548;DHT22;22551;52.206;4.856;2023-11-22T17:50:42;6.50;99.90
36548;DHT22;22551;52.206;4.856;2023-11-22T17:55:46;6.50;99.90
36548;DHT22;22551;52.206;4.856;2023-11-22T18:00:52;6.50;99.90
36548;DHT22;22551;52.206;4.856;2023-11-22T18:06:25;6.50;99.90
36548;DHT22;22551;52.206;4.856;2023-11-22T18:11:31;6.60;99.90
36548;DHT22;22551;52.206;4.856;2023-11-22T18:16:33;6.60;99.90
36548;DHT22;22551;52.206;4.856;2023-11-22T18:21:35;6.70;99.90
36548;DHT22;22551;52.206;4.856;2023-11-22T18:26:39;6.70;99.90
36548;DHT22;22551;52.206;4.856;2023-11-22T18:31:41;6.80;99.90
36548;DHT22;22551;52.206;4.856;2023-11-22T18:36:43;6.80;99.90
36548;DHT22;22551;52.206;4.856;2023-11-22T18:41:47;6.80;99.90
36548;DHT22;22551;52.206;4.856;2023-11-22T18:46:49;6.90;99.90
36548;DHT22;22551;52.206;4.856;2023-11-22T18:51:51;6.90;99.90
36548;DHT22;22551;52.206;4.856;2023-11-22T18:56:55;7.00;99.90
36548;DHT22;22551;52.206;4.856;2023-11-22T19:01:57;7.00;99.90
36548;DHT22;22551;52.206;4.856;2023-11-22T19:06:59;7.10;99.90
36548;DHT22;22551;52.206;4.856;2023-11-22T19:12:03;7.20;99.90
36548;DHT22;22551;52.206;4.856;2023-11-22T19:17:06;7.20;99.90
36548;DHT22;22551;52.206;4.856;2023-11-22T19:22:17;7.20;99.90
36548;DHT22;22551;52.206;4.856;2023-11-22T19:27:23;7.30;99.90
36548;DHT22;22551;52.206;4.856;2023-11-22T19:32:38;7.30;99.90
36548;DHT22;22551;52.206;4.856;2023-11-22T19:37:54;7.30;99.90
36548;DHT22;22551;52.206;4.856;2023-11-22T19:48:32;7.40;99.90
36548;DHT22;22551;52.206;4.856;2023-11-22T19:53:39;7.50;99.90
36548;DHT22;22551;52.206;4.856;2023-11-22T19:58:48;7.50;99.90
36548;DHT22;22551;52.206;4.856;2023-11-22T20:03:56;7.60;99.90
36548;DHT22;22551;52.206;4.856;2023-11-22T20:09:11;7.60;99.90
36548;DHT22;22551;52.206;4.856;2023-11-22T20:14:14;7.60;99.90
36548;DHT22;22551;52.206;4.856;2023-11-22T20:19:18;7.70;99.90
36548;DHT22;22551;52.206;4.856;2023-11-22T20:24:20;7.70;99.90
36548;DHT22;22551;52.206;4.856;2023-11-22T20:29:22;7.70;99.90
36548;DHT22;22551;52.206;4.856;2023-11-22T20:34:26;7.70;99.90
36548;DHT22;22551;52.206;4.856;2023-11-22T20:39:28;7.80;99.90
36548;DHT22;22551;52.206;4.856;2023-11-22T20:44:30;7.70;99.90
36548;DHT22;22551;52.206;4.856;2023-11-22T20:49:34;7.80;99.90
36548;DHT22;22551;52.206;4.856;2023-11-22T20:54:36;7.80;99.90
36548;DHT22;22551;52.206;4.856;2023-11-22T20:59:40;7.80;99.90
36548;DHT22;22551;52.206;4.856;2023-11-22T21:04:43;7.90;99.90
36548;DHT22;22551;52.206;4.856;2023-11-22T21:09:46;7.90;99.90
36548;DHT22;22551;52.206;4.856;2023-11-22T21:14:48;8.00;99.90
36548;DHT22;22551;52.206;4.856;2023-11-22T21:19:52;8.00;99.90
36548;DHT22;22551;52.206;4.856;2023-11-22T21:24:54;8.10;99.90
36548;DHT22;22551;52.206;4.856;2023-11-22T21:29:56;8.10;99.90
36548;DHT22;22551;52.206;4.856;2023-11-22T21:35:00;8.10;99.90
36548;DHT22;22551;52.206;4.856;2023-11-22T21:40:02;8.20;99.90
36548;DHT22;22551;52.206;4.856;2023-11-22T21:45:11;8.20;99.90
36548;DHT22;22551;52.206;4.856;2023-11-22T21:50:17;8.20;99.90
36548;DHT22;22551;52.206;4.856;2023-11-22T21:55:19;8.30;99.90
36548;DHT22;22551;52.206;4.856;2023-11-22T22:00:21;8.40;99.90
36548;DHT22;22551;52.206;4.856;2023-11-22T22:05:25;8.40;99.90
36548;DHT22;22551;52.206;4.856;2023-11-22T22:10:27;8.50;99.90
36548;DHT22;22551;52.206;4.856;2023-11-22T22:15:29;8.50;99.90
36548;DHT22;22551;52.206;4.856;2023-11-22T22:20:33;8.60;99.90
36548;DHT22;22551;52.206;4.856;2023-11-22T22:25:38;8.60;99.90
36548;DHT22;22551;52.206;4.856;2023-11-22T22:30:41;8.70;99.90
36548;DHT22;22551;52.206;4.856;2023-11-22T22:35:45;8.80;99.90
36548;DHT22;22551;52.206;4.856;2023-11-22T22:40:47;8.90;99.90
36548;DHT22;22551;52.206;4.856;2023-11-22T22:45:49;8.90;99.90
36548;DHT22;22551;52.206;4.856;2023-11-22T22:50:53;9.00;99.90
36548;DHT22;22551;52.206;4.856;2023-11-22T22:55:55;9.10;99.90
36548;DHT22;22551;52.206;4.856;2023-11-22T23:00:57;9.20;99.90
36548;DHT22;22551;52.206;4.856;2023-11-22T23:06:01;9.30;99.90
36548;DHT22;22551;52.206;4.856;2023-11-22T23:11:04;9.30;99.90
36548;DHT22;22551;52.206;4.856;2023-11-22T23:16:08;9.30;99.90
36548;DHT22;22551;52.206;4.856;2023-11-22T23:21:12;9.30;99.90
36548;DHT22;22551;52.206;4.856;2023-11-22T23:26:17;9.40;99.90
36548;DHT22;22551;52.206;4.856;2023-11-22T23:31:19;9.50;99.90
36548;DHT22;22551;52.206;4.856;2023-11-22T23:36:23;9.70;99.90
36548;DHT22;22551;52.206;4.856;2023-11-22T23:41:26;9.80;99.90
36548;DHT22;22551;52.206;4.856;2023-11-22T23:46:28;9.90;99.90
36548;DHT22;22551;52.206;4.856;2023-11-22T23:51:34;10.00;99.90
36548;DHT22;22551;52.206;4.856;2023-11-22T23:56:36;10.00;99.90
